UAE25K OMDB-EGLL
Flight info
| Callsign | UAE25K |
|---|---|
| Flight time | N/A |
| Altitude | 34000 |
| Route | SENPA N571 ALPOB L768 ULADA Q143 MEDGO N697 HIL A788 HLF L604 WEJ L677 CVO L617 NOZ/N0479F360 L551 ANTAR UN133 KPC DCT FSK DCT DISOR DCT LONTA UL608 DOLEV DCT BOSNA DCT MARIL DCT OKSIG DCT KUSIB DCT GORPA DCT DOL DCT NIPEL DCT MODSA DCT BABEG DCT LIRSU DCT ARCKY DCT BUB L608 LOGAN |
| Aircraft | B77L/H-SDE1E2E3FGHIJ2J3J4J5M1RWXY/LB1D1 |
Departure
| Time | 2026-05-05 22:23 |
|---|---|
| Airport | Dubai International Airport (OMDB) |
Arrival
| Time | N/A |
|---|---|
| Airport | London Heathrow Airport (EGLL) |
| Time | Latitude | Longitude | Altitude | Speed | Heading |
|---|---|---|---|---|---|
| 2026-05-05 21:42 | 25.26276 | 55.36081 | 23 ft | 0 kts | 31° |
| 2026-05-05 22:13 | 25.26263 | 55.36071 | 26 ft | 4 kts | 36° |
| 2026-05-05 22:14 | 25.26242 | 55.36052 | 26 ft | 4 kts | 50° |
| 2026-05-05 22:14 | 25.26228 | 55.36028 | 26 ft | 4 kts | 78° |
| 2026-05-05 22:14 | 25.26229 | 55.36005 | 25 ft | 4 kts | 122° |
| 2026-05-05 22:18 | 25.26223 | 55.36015 | 25 ft | 4 kts | 122° |
| 2026-05-05 22:18 | 25.26190 | 55.36074 | 21 ft | 14 kts | 120° |
| 2026-05-05 22:18 | 25.26125 | 55.36198 | 26 ft | 23 kts | 122° |
| 2026-05-05 22:18 | 25.26022 | 55.36376 | 29 ft | 32 kts | 122° |
| 2026-05-05 22:19 | 25.25903 | 55.36592 | 27 ft | 33 kts | 122° |
| 2026-05-05 22:19 | 25.25783 | 55.36805 | 28 ft | 32 kts | 122° |
| 2026-05-05 22:19 | 25.25669 | 55.37015 | 29 ft | 32 kts | 121° |
| 2026-05-05 22:19 | 25.25553 | 55.37223 | 31 ft | 34 kts | 122° |
| 2026-05-05 22:20 | 25.25411 | 55.37478 | 34 ft | 45 kts | 121° |
| 2026-05-05 22:20 | 25.25237 | 55.37794 | 36 ft | 48 kts | 121° |
| 2026-05-05 22:20 | 25.25077 | 55.38083 | 37 ft | 27 kts | 123° |
| 2026-05-05 22:20 | 25.24987 | 55.38166 | 37 ft | 16 kts | 195° |
| 2026-05-05 22:21 | 25.24913 | 55.38117 | 35 ft | 0 kts | 212° |
| 2026-05-05 22:21 | 25.24910 | 55.38115 | 35 ft | 2 kts | 212° |
| 2026-05-05 22:21 | 25.24879 | 55.38093 | 38 ft | 9 kts | 212° |
| 2026-05-05 22:22 | 25.24819 | 55.38042 | 38 ft | 12 kts | 239° |
| 2026-05-05 22:22 | 25.24843 | 55.37953 | 37 ft | 13 kts | 301° |
| 2026-05-05 22:22 | 25.24901 | 55.37849 | 37 ft | 23 kts | 303° |
| 2026-05-05 22:22 | 25.25049 | 55.37588 | 37 ft | 71 kts | 302° |
| 2026-05-05 22:23 | 25.25498 | 55.36784 | 24 ft | 174 kts | 303° |
| 2026-05-05 22:23 | 25.26279 | 55.35387 | 212 ft | 233 kts | 301° |
| 2026-05-05 22:23 | 25.27080 | 55.33924 | 1544 ft | 215 kts | 302° |
| 2026-05-05 22:23 | 25.27837 | 55.32553 | 2412 ft | 206 kts | 302° |
| 2026-05-05 22:24 | 25.28624 | 55.31140 | 2631 ft | 228 kts | 302° |
| 2026-05-05 22:24 | 25.29498 | 55.29535 | 2813 ft | 258 kts | 298° |
| 2026-05-05 22:24 | 25.29941 | 55.27502 | 2894 ft | 290 kts | 271° |
| 2026-05-05 22:24 | 25.29979 | 55.25325 | 3779 ft | 284 kts | 273° |
| 2026-05-05 22:25 | 25.30096 | 55.23185 | 5032 ft | 274 kts | 276° |
| 2026-05-05 22:25 | 25.30240 | 55.21079 | 5912 ft | 279 kts | 277° |
| 2026-05-05 22:25 | 25.30401 | 55.18916 | 6688 ft | 285 kts | 276° |
| 2026-05-05 22:25 | 25.30419 | 55.16705 | 7501 ft | 290 kts | 268° |
| 2026-05-05 22:26 | 25.30240 | 55.14475 | 8366 ft | 293 kts | 265° |
| 2026-05-05 22:26 | 25.30026 | 55.12220 | 9233 ft | 297 kts | 264° |
| 2026-05-05 22:26 | 25.29814 | 55.09924 | 9972 ft | 305 kts | 264° |
| 2026-05-05 22:26 | 25.29604 | 55.07499 | 10261 ft | 331 kts | 265° |
| 2026-05-05 22:27 | 25.29387 | 55.04862 | 10464 ft | 358 kts | 265° |
| 2026-05-05 22:27 | 25.29163 | 55.02035 | 10755 ft | 379 kts | 265° |
| 2026-05-05 22:27 | 25.28934 | 54.99085 | 11387 ft | 389 kts | 265° |
| 2026-05-05 22:27 | 25.28701 | 54.96087 | 12157 ft | 395 kts | 266° |
| 2026-05-05 22:28 | 25.28501 | 54.93047 | 13005 ft | 397 kts | 268° |
| 2026-05-05 22:28 | 25.28419 | 54.89990 | 13839 ft | 400 kts | 269° |
| 2026-05-05 22:28 | 25.28359 | 54.86945 | 14565 ft | 403 kts | 269° |
| 2026-05-05 22:28 | 25.28284 | 54.83843 | 15309 ft | 406 kts | 269° |
| 2026-05-05 22:29 | 25.28197 | 54.80711 | 16043 ft | 409 kts | 269° |
| 2026-05-05 22:29 | 25.28103 | 54.77559 | 16759 ft | 413 kts | 269° |
| 2026-05-05 22:29 | 25.28069 | 54.74378 | 17414 ft | 414 kts | 274° |
| 2026-05-05 22:29 | 25.28631 | 54.71241 | 17952 ft | 420 kts | 287° |
| 2026-05-05 22:30 | 25.29525 | 54.68146 | 18593 ft | 422 kts | 288° |
| 2026-05-05 22:30 | 25.30392 | 54.65044 | 19263 ft | 423 kts | 287° |
| 2026-05-05 22:30 | 25.31217 | 54.61912 | 19929 ft | 425 kts | 286° |
| 2026-05-05 22:30 | 25.32006 | 54.58800 | 20579 ft | 427 kts | 285° |
| 2026-05-05 22:31 | 25.32798 | 54.55629 | 21194 ft | 430 kts | 285° |
| 2026-05-05 22:31 | 25.33601 | 54.52430 | 21767 ft | 433 kts | 285° |
| 2026-05-05 22:31 | 25.34456 | 54.49219 | 22353 ft | 436 kts | 286° |
| 2026-05-05 22:31 | 25.35339 | 54.45994 | 22942 ft | 439 kts | 286° |
| 2026-05-05 22:32 | 25.36229 | 54.42757 | 23480 ft | 442 kts | 286° |
| 2026-05-05 22:32 | 25.37122 | 54.39493 | 23968 ft | 444 kts | 286° |
| 2026-05-05 22:32 | 25.38012 | 54.36213 | 24450 ft | 446 kts | 285° |
| 2026-05-05 22:32 | 25.38901 | 54.32923 | 24945 ft | 447 kts | 285° |
| 2026-05-05 22:33 | 25.39792 | 54.29618 | 25424 ft | 449 kts | 285° |
| 2026-05-05 22:33 | 25.40675 | 54.26293 | 25894 ft | 451 kts | 285° |
| 2026-05-05 22:33 | 25.41511 | 54.22942 | 26343 ft | 454 kts | 284° |
| 2026-05-05 22:33 | 25.42330 | 54.19563 | 26803 ft | 456 kts | 284° |
| 2026-05-05 22:34 | 25.43156 | 54.16164 | 27261 ft | 458 kts | 284° |
| 2026-05-05 22:34 | 25.43991 | 54.12762 | 27775 ft | 458 kts | 284° |
| 2026-05-05 22:34 | 25.44821 | 54.09398 | 28275 ft | 459 kts | 284° |
| 2026-05-05 22:34 | 25.45659 | 54.05980 | 28688 ft | 461 kts | 284° |
| 2026-05-05 22:35 | 25.46500 | 54.02531 | 29060 ft | 464 kts | 284° |
| 2026-05-05 22:35 | 25.47341 | 53.99067 | 29431 ft | 466 kts | 284° |
| 2026-05-05 22:35 | 25.48187 | 53.95585 | 29873 ft | 466 kts | 283° |
| 2026-05-05 22:35 | 25.49015 | 53.92174 | 30361 ft | 463 kts | 283° |
| 2026-05-05 22:36 | 25.49849 | 53.88739 | 30867 ft | 460 kts | 283° |
| 2026-05-05 22:36 | 25.50677 | 53.85324 | 31342 ft | 459 kts | 283° |
| 2026-05-05 22:36 | 25.51502 | 53.81914 | 31786 ft | 457 kts | 283° |
| 2026-05-05 22:36 | 25.52324 | 53.78518 | 32253 ft | 456 kts | 282° |
| 2026-05-05 22:37 | 25.53142 | 53.75134 | 32705 ft | 454 kts | 282° |
| 2026-05-05 22:37 | 25.53949 | 53.71760 | 33136 ft | 453 kts | 282° |
| 2026-05-05 22:37 | 25.54749 | 53.68382 | 33487 ft | 454 kts | 282° |
| 2026-05-05 22:38 | 25.56353 | 53.61583 | 33439 ft | 452 kts | 282° |
| 2026-05-05 22:38 | 25.57933 | 53.54891 | 33445 ft | 447 kts | 282° |
| 2026-05-05 22:39 | 25.59503 | 53.48221 | 33446 ft | 448 kts | 282° |
| 2026-05-05 22:39 | 25.61075 | 53.41537 | 33445 ft | 448 kts | 282° |
| 2026-05-05 22:40 | 25.62655 | 53.34843 | 33445 ft | 449 kts | 282° |
| 2026-05-05 22:40 | 25.64241 | 53.28141 | 33445 ft | 450 kts | 282° |
| 2026-05-05 22:41 | 25.65815 | 53.21469 | 33442 ft | 450 kts | 282° |
| 2026-05-05 22:41 | 25.67395 | 53.14750 | 33454 ft | 450 kts | 281° |
| 2026-05-05 22:42 | 25.68970 | 53.08040 | 33440 ft | 449 kts | 281° |
| 2026-05-05 22:42 | 25.70401 | 53.02501 | 33432 ft | 451 kts | 286° |
| 2026-05-05 22:43 | 25.72979 | 52.96126 | 33442 ft | 454 kts | 294° |
| 2026-05-05 22:43 | 25.75955 | 52.89940 | 33442 ft | 454 kts | 294° |
| 2026-05-05 22:44 | 25.78883 | 52.83784 | 33436 ft | 454 kts | 293° |
| 2026-05-05 22:44 | 25.81818 | 52.77567 | 33436 ft | 454 kts | 293° |
| 2026-05-05 22:45 | 25.84748 | 52.71347 | 33439 ft | 455 kts | 293° |
| 2026-05-05 22:45 | 25.87683 | 52.65108 | 33440 ft | 456 kts | 293° |
| 2026-05-05 22:46 | 25.90606 | 52.58857 | 33439 ft | 456 kts | 292° |
| 2026-05-05 22:46 | 25.93411 | 52.52533 | 33439 ft | 456 kts | 292° |
| 2026-05-05 22:47 | 25.96178 | 52.46246 | 33446 ft | 456 kts | 291° |
| 2026-05-05 22:47 | 25.98985 | 52.39909 | 33438 ft | 457 kts | 291° |
| 2026-05-05 22:48 | 26.01807 | 52.33569 | 33437 ft | 457 kts | 292° |
| 2026-05-05 22:48 | 26.04626 | 52.27239 | 33432 ft | 457 kts | 292° |
| 2026-05-05 22:49 | 26.07445 | 52.20892 | 33435 ft | 457 kts | 291° |
| 2026-05-05 22:49 | 26.10260 | 52.14545 | 33443 ft | 457 kts | 291° |
| 2026-05-05 22:50 | 26.13055 | 52.08229 | 33434 ft | 457 kts | 291° |
| 2026-05-05 22:50 | 26.15862 | 52.01880 | 33429 ft | 457 kts | 291° |
| 2026-05-05 22:51 | 26.18688 | 51.95544 | 33432 ft | 457 kts | 291° |
| 2026-05-05 22:51 | 26.21537 | 51.89204 | 33430 ft | 457 kts | 291° |
| 2026-05-05 22:52 | 26.24343 | 51.82843 | 33448 ft | 457 kts | 291° |
| 2026-05-05 22:52 | 26.27163 | 51.76492 | 33437 ft | 457 kts | 291° |
| 2026-05-05 22:53 | 26.29980 | 51.70189 | 33420 ft | 457 kts | 291° |
| 2026-05-05 22:53 | 26.32802 | 51.63853 | 33425 ft | 456 kts | 291° |
| 2026-05-05 22:54 | 26.35620 | 51.57515 | 33420 ft | 456 kts | 291° |
| 2026-05-05 22:54 | 26.38316 | 51.51142 | 33441 ft | 451 kts | 285° |
| 2026-05-05 22:55 | 26.40374 | 51.44563 | 33436 ft | 448 kts | 284° |
| 2026-05-05 22:55 | 26.42430 | 51.38055 | 33436 ft | 446 kts | 284° |
| 2026-05-05 22:56 | 26.44543 | 51.31547 | 33448 ft | 445 kts | 285° |
| 2026-05-05 22:56 | 26.46663 | 51.25070 | 33440 ft | 443 kts | 284° |
| 2026-05-05 22:57 | 26.48725 | 51.18598 | 33430 ft | 441 kts | 284° |
| 2026-05-05 22:57 | 26.50767 | 51.12146 | 33445 ft | 440 kts | 284° |
| 2026-05-05 22:58 | 26.52805 | 51.05714 | 33436 ft | 439 kts | 284° |
| 2026-05-05 22:58 | 26.54836 | 50.99298 | 33434 ft | 438 kts | 284° |
| 2026-05-05 22:59 | 26.56851 | 50.92925 | 33433 ft | 438 kts | 284° |
| 2026-05-05 22:59 | 26.58851 | 50.86499 | 33426 ft | 438 kts | 283° |
| 2026-05-05 23:00 | 26.61802 | 50.76839 | 33452 ft | 438 kts | 283° |
| 2026-05-05 23:00 | 26.63774 | 50.70396 | 33438 ft | 438 kts | 283° |
| 2026-05-05 23:01 | 26.65718 | 50.63950 | 33410 ft | 437 kts | 283° |
| 2026-05-05 23:01 | 26.67631 | 50.57495 | 33427 ft | 437 kts | 283° |
| 2026-05-05 23:02 | 26.69546 | 50.51042 | 33427 ft | 437 kts | 283° |
| 2026-05-05 23:02 | 26.71385 | 50.44569 | 33422 ft | 435 kts | 281° |
| 2026-05-05 23:03 | 26.73026 | 50.38042 | 33435 ft | 436 kts | 280° |
| 2026-05-05 23:03 | 26.74687 | 50.31564 | 33435 ft | 435 kts | 279° |
| 2026-05-05 23:04 | 26.75728 | 50.24951 | 33433 ft | 429 kts | 271° |
| 2026-05-05 23:04 | 26.75919 | 50.18302 | 33432 ft | 427 kts | 266° |
| 2026-05-05 23:05 | 26.75957 | 50.11656 | 33419 ft | 428 kts | 267° |
| 2026-05-05 23:05 | 26.76014 | 50.04990 | 33411 ft | 428 kts | 267° |
| 2026-05-05 23:06 | 26.76074 | 49.98358 | 33420 ft | 429 kts | 267° |
| 2026-05-05 23:06 | 26.76127 | 49.91684 | 33418 ft | 429 kts | 266° |
| 2026-05-05 23:07 | 26.76167 | 49.84990 | 33417 ft | 430 kts | 266° |
| 2026-05-05 23:07 | 26.76204 | 49.78293 | 33417 ft | 430 kts | 266° |
| 2026-05-05 23:08 | 26.76240 | 49.71617 | 33412 ft | 429 kts | 266° |
| 2026-05-05 23:08 | 26.76273 | 49.64991 | 33416 ft | 428 kts | 266° |
| 2026-05-05 23:09 | 26.76303 | 49.58346 | 33419 ft | 427 kts | 266° |
| 2026-05-05 23:09 | 26.76337 | 49.51713 | 33415 ft | 426 kts | 266° |
| 2026-05-05 23:10 | 26.76371 | 49.45073 | 33417 ft | 426 kts | 266° |
| 2026-05-05 23:10 | 26.76400 | 49.38435 | 33426 ft | 427 kts | 266° |
| 2026-05-05 23:11 | 26.76431 | 49.31782 | 33427 ft | 427 kts | 266° |
| 2026-05-05 23:11 | 26.76462 | 49.25123 | 33435 ft | 428 kts | 266° |
| 2026-05-05 23:12 | 26.76490 | 49.18503 | 33438 ft | 428 kts | 266° |
| 2026-05-05 23:12 | 26.76515 | 49.11829 | 33443 ft | 429 kts | 266° |
| 2026-05-05 23:13 | 26.76537 | 49.05162 | 33449 ft | 428 kts | 266° |
| 2026-05-05 23:13 | 26.76556 | 48.98503 | 33442 ft | 427 kts | 266° |
| 2026-05-05 23:14 | 26.76571 | 48.91854 | 33442 ft | 427 kts | 266° |
| 2026-05-05 23:14 | 26.76583 | 48.85211 | 33445 ft | 426 kts | 266° |
| 2026-05-05 23:15 | 26.76593 | 48.78581 | 33449 ft | 426 kts | 266° |
| 2026-05-05 23:15 | 26.76599 | 48.71962 | 33455 ft | 426 kts | 266° |
| 2026-05-05 23:16 | 26.76516 | 48.65380 | 33456 ft | 425 kts | 264° |
| 2026-05-05 23:16 | 26.76302 | 48.58776 | 33466 ft | 425 kts | 264° |
| 2026-05-05 23:17 | 26.76097 | 48.52160 | 33469 ft | 425 kts | 264° |
| 2026-05-05 23:17 | 26.75906 | 48.45546 | 33476 ft | 425 kts | 264° |
| 2026-05-05 23:18 | 26.75715 | 48.38921 | 33483 ft | 426 kts | 264° |
| 2026-05-05 23:18 | 26.75523 | 48.32298 | 33488 ft | 426 kts | 264° |
| 2026-05-05 23:19 | 26.75347 | 48.25665 | 33492 ft | 426 kts | 264° |
| 2026-05-05 23:19 | 26.75172 | 48.19080 | 33498 ft | 426 kts | 264° |
| 2026-05-05 23:20 | 26.74990 | 48.12444 | 33509 ft | 427 kts | 264° |
| 2026-05-05 23:20 | 26.74804 | 48.05808 | 33508 ft | 427 kts | 264° |
| 2026-05-05 23:21 | 26.74615 | 47.99163 | 33503 ft | 428 kts | 264° |
| 2026-05-05 23:21 | 26.74423 | 47.92507 | 33516 ft | 428 kts | 264° |
| 2026-05-05 23:22 | 26.74388 | 47.85843 | 33526 ft | 431 kts | 269° |
| 2026-05-05 23:22 | 26.74752 | 47.79147 | 33535 ft | 431 kts | 269° |
| 2026-05-05 23:23 | 26.75098 | 47.72467 | 33529 ft | 430 kts | 268° |
| 2026-05-05 23:23 | 26.75430 | 47.65839 | 33532 ft | 429 kts | 268° |
| 2026-05-05 23:24 | 26.75758 | 47.59188 | 33538 ft | 428 kts | 268° |
| 2026-05-05 23:24 | 26.76081 | 47.52548 | 33545 ft | 427 kts | 268° |
| 2026-05-05 23:25 | 26.76403 | 47.45917 | 33547 ft | 426 kts | 268° |
| 2026-05-05 23:25 | 26.76721 | 47.39295 | 33545 ft | 426 kts | 269° |
| 2026-05-05 23:26 | 26.77527 | 47.32676 | 33553 ft | 431 kts | 275° |
| 2026-05-05 23:26 | 26.78568 | 47.26074 | 33554 ft | 431 kts | 274° |
| 2026-05-05 23:27 | 26.79585 | 47.19470 | 33562 ft | 430 kts | 274° |
| 2026-05-05 23:27 | 26.80591 | 47.12876 | 33558 ft | 430 kts | 274° |
| 2026-05-05 23:28 | 26.81594 | 47.06276 | 33566 ft | 429 kts | 274° |
| 2026-05-05 23:28 | 26.82588 | 46.99722 | 33572 ft | 430 kts | 274° |
| 2026-05-05 23:29 | 26.83586 | 46.93116 | 33572 ft | 430 kts | 274° |
| 2026-05-05 23:29 | 26.84582 | 46.86504 | 33590 ft | 430 kts | 274° |
| 2026-05-05 23:30 | 26.85408 | 46.81007 | 33583 ft | 430 kts | 274° |
| 2026-05-05 23:30 | 26.86397 | 46.74407 | 33579 ft | 429 kts | 274° |
| 2026-05-05 23:31 | 26.87381 | 46.67815 | 33581 ft | 429 kts | 274° |
| 2026-05-05 23:31 | 26.88361 | 46.61227 | 33584 ft | 428 kts | 274° |
| 2026-05-05 23:32 | 26.89337 | 46.54643 | 33591 ft | 428 kts | 274° |
| 2026-05-05 23:32 | 26.90309 | 46.48066 | 33591 ft | 428 kts | 274° |
| 2026-05-05 23:33 | 26.91273 | 46.41532 | 33602 ft | 427 kts | 273° |
| 2026-05-05 23:33 | 26.92242 | 46.34974 | 33597 ft | 426 kts | 274° |
| 2026-05-05 23:34 | 26.93219 | 46.28422 | 33597 ft | 426 kts | 274° |
| 2026-05-05 23:34 | 26.94189 | 46.21891 | 33603 ft | 425 kts | 274° |
| 2026-05-05 23:35 | 26.95156 | 46.15360 | 33594 ft | 424 kts | 274° |
| 2026-05-05 23:35 | 26.96118 | 46.08831 | 33605 ft | 424 kts | 273° |
| 2026-05-05 23:36 | 26.97077 | 46.02301 | 33617 ft | 425 kts | 273° |
| 2026-05-05 23:36 | 26.98033 | 45.95766 | 33604 ft | 425 kts | 273° |
| 2026-05-05 23:37 | 26.98988 | 45.89224 | 33614 ft | 425 kts | 273° |
| 2026-05-05 23:37 | 26.99938 | 45.82688 | 33615 ft | 425 kts | 273° |
| 2026-05-05 23:38 | 27.00886 | 45.76144 | 33609 ft | 425 kts | 273° |
| 2026-05-05 23:38 | 27.01832 | 45.69595 | 33610 ft | 425 kts | 273° |
| 2026-05-05 23:39 | 27.02771 | 45.63081 | 33639 ft | 426 kts | 273° |
| 2026-05-05 23:39 | 27.03713 | 45.56513 | 33623 ft | 425 kts | 273° |
| 2026-05-05 23:40 | 27.04637 | 45.49959 | 33619 ft | 425 kts | 272° |
| 2026-05-05 23:40 | 27.05547 | 45.43412 | 33617 ft | 424 kts | 272° |
| 2026-05-05 23:41 | 27.06305 | 45.36870 | 33629 ft | 422 kts | 271° |
| 2026-05-05 23:41 | 27.07010 | 45.30323 | 33632 ft | 422 kts | 271° |
| 2026-05-05 23:42 | 27.07722 | 45.23822 | 33626 ft | 423 kts | 271° |
| 2026-05-05 23:42 | 27.08448 | 45.17267 | 33625 ft | 423 kts | 271° |
| 2026-05-05 23:43 | 27.09174 | 45.10713 | 33635 ft | 423 kts | 271° |
| 2026-05-05 23:43 | 27.09896 | 45.04167 | 33630 ft | 423 kts | 271° |
| 2026-05-05 23:44 | 27.10614 | 44.97626 | 33644 ft | 422 kts | 270° |
| 2026-05-05 23:44 | 27.11330 | 44.91070 | 33629 ft | 422 kts | 270° |
| 2026-05-05 23:45 | 27.12038 | 44.84568 | 33635 ft | 422 kts | 270° |
| 2026-05-05 23:45 | 27.12747 | 44.78027 | 33635 ft | 422 kts | 270° |
| 2026-05-05 23:46 | 27.13452 | 44.71496 | 33626 ft | 422 kts | 270° |
| 2026-05-05 23:46 | 27.14152 | 44.64961 | 33634 ft | 422 kts | 270° |
| 2026-05-05 23:47 | 27.14850 | 44.58424 | 33632 ft | 422 kts | 270° |
| 2026-05-05 23:47 | 27.15545 | 44.51882 | 33632 ft | 422 kts | 270° |
| 2026-05-05 23:48 | 27.16238 | 44.45333 | 33632 ft | 422 kts | 270° |
| 2026-05-05 23:48 | 27.16929 | 44.38777 | 33646 ft | 423 kts | 270° |
| 2026-05-05 23:49 | 27.17613 | 44.32219 | 33640 ft | 423 kts | 270° |
| 2026-05-05 23:49 | 27.18290 | 44.25658 | 33643 ft | 422 kts | 270° |
| 2026-05-05 23:50 | 27.18964 | 44.19112 | 33654 ft | 421 kts | 270° |
| 2026-05-05 23:50 | 27.19630 | 44.12610 | 33648 ft | 421 kts | 270° |
| 2026-05-05 23:51 | 27.20297 | 44.06071 | 33648 ft | 421 kts | 270° |
| 2026-05-05 23:51 | 27.20960 | 43.99548 | 33656 ft | 420 kts | 270° |
| 2026-05-05 23:52 | 27.21618 | 43.93030 | 33649 ft | 420 kts | 270° |
| 2026-05-05 23:52 | 27.22273 | 43.86513 | 33652 ft | 419 kts | 270° |
| 2026-05-05 23:53 | 27.22925 | 43.80000 | 33656 ft | 419 kts | 270° |
| 2026-05-05 23:53 | 27.23570 | 43.73533 | 33661 ft | 419 kts | 270° |
| 2026-05-05 23:54 | 27.24217 | 43.67008 | 33661 ft | 420 kts | 270° |
| 2026-05-05 23:54 | 27.24864 | 43.60487 | 33676 ft | 420 kts | 270° |
| 2026-05-05 23:55 | 27.25510 | 43.53948 | 33673 ft | 421 kts | 270° |
| 2026-05-05 23:55 | 27.26153 | 43.47403 | 33668 ft | 421 kts | 270° |
| 2026-05-05 23:56 | 27.26792 | 43.40866 | 33692 ft | 421 kts | 270° |
| 2026-05-05 23:56 | 27.27429 | 43.34329 | 33679 ft | 421 kts | 270° |
| 2026-05-05 23:57 | 27.28059 | 43.27823 | 33674 ft | 421 kts | 270° |
| 2026-05-05 23:57 | 27.28689 | 43.21280 | 33695 ft | 421 kts | 270° |
| 2026-05-05 23:58 | 27.29316 | 43.14739 | 33686 ft | 421 kts | 270° |
| 2026-05-05 23:58 | 27.29940 | 43.08197 | 33654 ft | 421 kts | 270° |
| 2026-05-05 23:59 | 27.30562 | 43.01652 | 33696 ft | 420 kts | 270° |
| 2026-05-05 23:59 | 27.31180 | 42.95110 | 33687 ft | 421 kts | 270° |
| 2026-05-06 00:00 | 27.31795 | 42.88555 | 33693 ft | 421 kts | 270° |
| 2026-05-06 00:00 | 27.32408 | 42.82001 | 33692 ft | 421 kts | 270° |
| 2026-05-06 00:01 | 27.33017 | 42.75458 | 33700 ft | 421 kts | 270° |
| 2026-05-06 00:01 | 27.33620 | 42.68945 | 33701 ft | 421 kts | 270° |
| 2026-05-06 00:02 | 27.34223 | 42.62397 | 33702 ft | 421 kts | 270° |
| 2026-05-06 00:02 | 27.34823 | 42.55845 | 33708 ft | 421 kts | 270° |
| 2026-05-06 00:03 | 27.35422 | 42.49280 | 33706 ft | 421 kts | 270° |
| 2026-05-06 00:03 | 27.36016 | 42.42726 | 33708 ft | 421 kts | 270° |
| 2026-05-06 00:04 | 27.36603 | 42.36175 | 33716 ft | 421 kts | 269° |
| 2026-05-06 00:04 | 27.37183 | 42.29667 | 33672 ft | 420 kts | 269° |
| 2026-05-06 00:05 | 27.38051 | 42.19848 | 33704 ft | 420 kts | 269° |
| 2026-05-06 00:06 | 27.38627 | 42.13304 | 33719 ft | 420 kts | 269° |
| 2026-05-06 00:06 | 27.39199 | 42.06765 | 33716 ft | 420 kts | 269° |
| 2026-05-06 00:07 | 27.39768 | 42.00224 | 33726 ft | 420 kts | 269° |
| 2026-05-06 00:07 | 27.40332 | 41.93687 | 33733 ft | 420 kts | 269° |
| 2026-05-06 00:08 | 27.40892 | 41.87194 | 33723 ft | 419 kts | 269° |
| 2026-05-06 00:08 | 27.41451 | 41.80663 | 33726 ft | 419 kts | 269° |
| 2026-05-06 00:09 | 27.41993 | 41.74132 | 33733 ft | 417 kts | 267° |
| 2026-05-06 00:09 | 27.41467 | 41.67736 | 33738 ft | 409 kts | 255° |
| 2026-05-06 00:10 | 27.39914 | 41.61619 | 33695 ft | 405 kts | 245° |
| 2026-05-06 00:10 | 27.37579 | 41.55853 | 33757 ft | 405 kts | 244° |
| 2026-05-06 00:11 | 27.35226 | 41.50066 | 33732 ft | 407 kts | 245° |
| 2026-05-06 00:11 | 27.32885 | 41.44257 | 33724 ft | 408 kts | 245° |
| 2026-05-06 00:12 | 27.30565 | 41.38477 | 33713 ft | 408 kts | 245° |
| 2026-05-06 00:12 | 27.28229 | 41.32654 | 33723 ft | 409 kts | 245° |
| 2026-05-06 00:13 | 27.25888 | 41.26832 | 33702 ft | 409 kts | 245° |
| 2026-05-06 00:13 | 27.23545 | 41.21012 | 33713 ft | 408 kts | 245° |
| 2026-05-06 00:14 | 27.21199 | 41.15191 | 33703 ft | 409 kts | 245° |
| 2026-05-06 00:14 | 27.18847 | 41.09370 | 33707 ft | 410 kts | 244° |
| 2026-05-06 00:15 | 27.16493 | 41.03543 | 33698 ft | 410 kts | 244° |
| 2026-05-06 00:15 | 27.14132 | 40.97714 | 33690 ft | 410 kts | 244° |
| 2026-05-06 00:16 | 27.11763 | 40.91885 | 33702 ft | 410 kts | 244° |
| 2026-05-06 00:16 | 27.09410 | 40.86097 | 33697 ft | 411 kts | 244° |
| 2026-05-06 00:17 | 27.07033 | 40.80258 | 33687 ft | 411 kts | 244° |
| 2026-05-06 00:17 | 27.05058 | 40.75413 | 33696 ft | 410 kts | 244° |
| 2026-05-06 00:18 | 27.02295 | 40.68642 | 33684 ft | 410 kts | 244° |
| 2026-05-06 00:18 | 26.99920 | 40.62831 | 33686 ft | 410 kts | 244° |
| 2026-05-06 00:19 | 26.97939 | 40.57990 | 33684 ft | 410 kts | 244° |
| 2026-05-06 00:19 | 26.95558 | 40.52182 | 33687 ft | 410 kts | 244° |
| 2026-05-06 00:20 | 26.93172 | 40.46366 | 33707 ft | 410 kts | 244° |
| 2026-05-06 00:20 | 26.90784 | 40.40554 | 33669 ft | 411 kts | 244° |
| 2026-05-06 00:21 | 26.88394 | 40.34746 | 33679 ft | 410 kts | 244° |
| 2026-05-06 00:21 | 26.86001 | 40.28941 | 33682 ft | 410 kts | 244° |
| 2026-05-06 00:22 | 26.83609 | 40.23145 | 33688 ft | 410 kts | 244° |
| 2026-05-06 00:22 | 26.81209 | 40.17339 | 33679 ft | 411 kts | 244° |
| 2026-05-06 00:23 | 26.78805 | 40.11527 | 33687 ft | 411 kts | 244° |
| 2026-05-06 00:23 | 26.76410 | 40.05750 | 33681 ft | 412 kts | 244° |
| 2026-05-06 00:24 | 26.73994 | 39.99928 | 33691 ft | 412 kts | 244° |
| 2026-05-06 00:24 | 26.71571 | 39.94098 | 33686 ft | 413 kts | 244° |
| 2026-05-06 00:25 | 26.69143 | 39.88266 | 33687 ft | 414 kts | 244° |
| 2026-05-06 00:25 | 26.66712 | 39.82432 | 33687 ft | 414 kts | 244° |
| 2026-05-06 00:26 | 26.64279 | 39.76604 | 33682 ft | 414 kts | 244° |